sensor_id;sensor_type;location;lat;lon;timestamp;pressure;altitude;pressure_sealevel;temperature;humidity
80585;BME280;70137;56.482;9.154;2023-12-29T00:01:12;99342.31;;;7.03;97.73
80585;BME280;70137;56.482;9.154;2023-12-29T00:03:38;99344.91;;;7.03;98.04
80585;BME280;70137;56.482;9.154;2023-12-29T00:06:03;99345.25;;;7.00;96.72
80585;BME280;70137;56.482;9.154;2023-12-29T00:08:29;99340.28;;;6.98;97.25
80585;BME280;70137;56.482;9.154;2023-12-29T00:10:55;99341.44;;;6.96;97.79
80585;BME280;70137;56.482;9.154;2023-12-29T00:13:20;99338.19;;;6.94;98.24
80585;BME280;70137;56.482;9.154;2023-12-29T00:15:51;99339.97;;;6.93;97.80
80585;BME280;70137;56.482;9.154;2023-12-29T00:18:17;99345.94;;;6.94;97.88
80585;BME280;70137;56.482;9.154;2023-12-29T00:20:42;99342.56;;;6.93;97.70
80585;BME280;70137;56.482;9.154;2023-12-29T00:23:07;99335.00;;;6.92;98.15
80585;BME280;70137;56.482;9.154;2023-12-29T00:25:38;99332.44;;;6.92;97.93
80585;BME280;70137;56.482;9.154;2023-12-29T00:28:04;99322.94;;;6.92;98.20
80585;BME280;70137;56.482;9.154;2023-12-29T00:30:30;99318.75;;;6.91;98.15
80585;BME280;70137;56.482;9.154;2023-12-29T00:32:56;99328.59;;;6.87;97.93
80585;BME280;70137;56.482;9.154;2023-12-29T00:35:21;99319.44;;;6.85;97.70
80585;BME280;70137;56.482;9.154;2023-12-29T00:37:46;99321.38;;;6.83;98.42
80585;BME280;70137;56.482;9.154;2023-12-29T00:40:12;99314.63;;;6.82;97.62
80585;BME280;70137;56.482;9.154;2023-12-29T00:42:37;99329.13;;;6.83;98.31
80585;BME280;70137;56.482;9.154;2023-12-29T00:45:03;99328.50;;;6.81;97.76
80585;BME280;70137;56.482;9.154;2023-12-29T00:47:29;99315.34;;;6.76;97.74
80585;BME280;70137;56.482;9.154;2023-12-29T00:49:54;99329.53;;;6.72;98.39
80585;BME280;70137;56.482;9.154;2023-12-29T00:52:20;99330.84;;;6.68;98.23
80585;BME280;70137;56.482;9.154;2023-12-29T00:54:45;99324.25;;;6.65;98.27
80585;BME280;70137;56.482;9.154;2023-12-29T00:57:10;99322.81;;;6.63;97.84
80585;BME280;70137;56.482;9.154;2023-12-29T00:59:37;99317.06;;;6.60;98.72
80585;BME280;70137;56.482;9.154;2023-12-29T01:02:04;99311.59;;;6.55;97.92
80585;BME280;70137;56.482;9.154;2023-12-29T01:04:29;99316.13;;;6.53;97.94
80585;BME280;70137;56.482;9.154;2023-12-29T01:06:54;99313.91;;;6.50;98.51
80585;BME280;70137;56.482;9.154;2023-12-29T01:09:20;99319.06;;;6.50;98.57
80585;BME280;70137;56.482;9.154;2023-12-29T01:11:45;99312.63;;;6.46;98.59
80585;BME280;70137;56.482;9.154;2023-12-29T01:14:10;99309.44;;;6.44;98.48
80585;BME280;70137;56.482;9.154;2023-12-29T01:16:36;99308.00;;;6.42;98.17
80585;BME280;70137;56.482;9.154;2023-12-29T01:19:01;99308.00;;;6.42;98.52
80585;BME280;70137;56.482;9.154;2023-12-29T01:21:27;99300.47;;;6.40;98.78
80585;BME280;70137;56.482;9.154;2023-12-29T01:23:52;99300.47;;;6.40;98.99
80585;BME280;70137;56.482;9.154;2023-12-29T01:26:17;99303.03;;;6.40;98.91
80585;BME280;70137;56.482;9.154;2023-12-29T01:28:43;99296.13;;;6.41;98.80
80585;BME280;70137;56.482;9.154;2023-12-29T01:31:08;99289.81;;;6.43;100.00
80585;BME280;70137;56.482;9.154;2023-12-29T01:33:34;99294.78;;;6.45;99.88
80585;BME280;70137;56.482;9.154;2023-12-29T01:35:59;99301.53;;;6.46;99.75
80585;BME280;70137;56.482;9.154;2023-12-29T01:38:25;99294.97;;;6.43;99.82
80585;BME280;70137;56.482;9.154;2023-12-29T01:40:50;99294.00;;;6.44;100.00
80585;BME280;70137;56.482;9.154;2023-12-29T01:43:16;99299.75;;;6.46;99.88
80585;BME280;70137;56.482;9.154;2023-12-29T01:45:41;99296.25;;;6.47;100.00
80585;BME280;70137;56.482;9.154;2023-12-29T01:48:07;99295.28;;;6.48;99.86
80585;BME280;70137;56.482;9.154;2023-12-29T01:50:33;99304.09;;;6.46;100.00
80585;BME280;70137;56.482;9.154;2023-12-29T01:53:01;99290.13;;;6.48;99.84
80585;BME280;70137;56.482;9.154;2023-12-29T01:55:28;99288.34;;;6.49;99.98
80585;BME280;70137;56.482;9.154;2023-12-29T01:57:55;99282.22;;;6.50;99.82
80585;BME280;70137;56.482;9.154;2023-12-29T02:00:21;99287.19;;;6.51;100.00
80585;BME280;70137;56.482;9.154;2023-12-29T02:02:46;99276.91;;;6.51;99.97
80585;BME280;70137;56.482;9.154;2023-12-29T02:05:17;99278.50;;;6.52;99.36
80585;BME280;70137;56.482;9.154;2023-12-29T02:07:45;99266.41;;;6.53;99.99
80585;BME280;70137;56.482;9.154;2023-12-29T02:10:12;99266.41;;;6.53;99.89
80585;BME280;70137;56.482;9.154;2023-12-29T02:12:40;99264.31;;;6.56;99.89
80585;BME280;70137;56.482;9.154;2023-12-29T02:15:06;99262.53;;;6.57;99.23
80585;BME280;70137;56.482;9.154;2023-12-29T02:17:52;99248.50;;;6.59;99.19
80585;BME280;70137;56.482;9.154;2023-12-29T02:20:20;99245.41;;;6.64;99.24
80585;BME280;70137;56.482;9.154;2023-12-29T02:22:45;99237.69;;;6.64;99.67
80585;BME280;70137;56.482;9.154;2023-12-29T02:25:11;99230.75;;;6.65;99.72
80585;BME280;70137;56.482;9.154;2023-12-29T02:27:57;99233.97;;;6.67;99.25
80585;BME280;70137;56.482;9.154;2023-12-29T02:30:46;99227.69;;;6.69;99.46
80585;BME280;70137;56.482;9.154;2023-12-29T02:33:19;99232.47;;;6.72;98.67
80585;BME280;70137;56.482;9.154;2023-12-29T02:35:45;99218.63;;;6.73;98.93
80585;BME280;70137;56.482;9.154;2023-12-29T02:38:11;99216.84;;;6.74;99.08
80585;BME280;70137;56.482;9.154;2023-12-29T02:40:37;99214.25;;;6.74;98.70
80585;BME280;70137;56.482;9.154;2023-12-29T02:43:03;99199.47;;;6.76;99.07
80585;BME280;70137;56.482;9.154;2023-12-29T02:45:29;99205.22;;;6.78;98.61
80585;BME280;70137;56.482;9.154;2023-12-29T02:47:54;99199.72;;;6.81;98.81
80585;BME280;70137;56.482;9.154;2023-12-29T02:50:20;99212.59;;;6.81;99.65
80585;BME280;70137;56.482;9.154;2023-12-29T02:52:45;99197.75;;;6.83;98.74
80585;BME280;70137;56.482;9.154;2023-12-29T02:55:10;99192.28;;;6.86;98.65
80585;BME280;70137;56.482;9.154;2023-12-29T02:57:37;99196.44;;;6.87;99.26
80585;BME280;70137;56.482;9.154;2023-12-29T03:00:04;99189.50;;;6.87;98.58
80585;BME280;70137;56.482;9.154;2023-12-29T03:02:30;99191.28;;;6.87;99.07
80585;BME280;70137;56.482;9.154;2023-12-29T03:04:55;99184.38;;;6.87;99.41
80585;BME280;70137;56.482;9.154;2023-12-29T03:07:20;99188.72;;;6.87;98.64
80585;BME280;70137;56.482;9.154;2023-12-29T03:09:46;99183.56;;;6.87;98.94
80585;BME280;70137;56.482;9.154;2023-12-29T03:12:11;99184.00;;;6.91;98.32
80585;BME280;70137;56.482;9.154;2023-12-29T03:14:36;99166.16;;;6.89;98.35
80585;BME280;70137;56.482;9.154;2023-12-29T03:17:02;99162.97;;;6.87;97.84
80585;BME280;70137;56.482;9.154;2023-12-29T03:19:27;99158.94;;;6.84;97.02
80585;BME280;70137;56.482;9.154;2023-12-29T03:21:52;99167.81;;;6.82;96.33
80585;BME280;70137;56.482;9.154;2023-12-29T03:24:19;99154.94;;;6.82;96.32
80585;BME280;70137;56.482;9.154;2023-12-29T03:26:44;99155.56;;;6.84;96.99
80585;BME280;70137;56.482;9.154;2023-12-29T03:29:11;99145.91;;;6.86;97.43
80585;BME280;70137;56.482;9.154;2023-12-29T03:31:36;99133.66;;;6.88;98.05
80585;BME280;70137;56.482;9.154;2023-12-29T03:34:02;99132.84;;;6.87;97.85
80585;BME280;70137;56.482;9.154;2023-12-29T03:36:27;99127.69;;;6.87;98.80
80585;BME280;70137;56.482;9.154;2023-12-29T03:38:52;99122.53;;;6.87;98.32
80585;BME280;70137;56.482;9.154;2023-12-29T03:41:18;99134.63;;;6.87;98.41
80585;BME280;70137;56.482;9.154;2023-12-29T03:43:44;99123.34;;;6.88;99.58
80585;BME280;70137;56.482;9.154;2023-12-29T03:46:17;99121.38;;;6.90;98.10
80585;BME280;70137;56.482;9.154;2023-12-29T03:48:42;99112.06;;;6.89;98.59
80585;BME280;70137;56.482;9.154;2023-12-29T03:51:08;99117.03;;;6.91;97.77
80585;BME280;70137;56.482;9.154;2023-12-29T03:53:33;99106.53;;;6.92;96.48
80585;BME280;70137;56.482;9.154;2023-12-29T03:55:58;99096.06;;;6.94;96.88
80585;BME280;70137;56.482;9.154;2023-12-29T03:58:24;99107.53;;;6.91;96.56
80585;BME280;70137;56.482;9.154;2023-12-29T04:00:49;99079.00;;;6.93;95.89
80585;BME280;70137;56.482;9.154;2023-12-29T04:03:14;99107.16;;;6.94;95.92
80585;BME280;70137;56.482;9.154;2023-12-29T04:05:39;99087.19;;;6.96;95.94
80585;BME280;70137;56.482;9.154;2023-12-29T04:08:05;99089.75;;;6.96;95.83
80585;BME280;70137;56.482;9.154;2023-12-29T04:10:30;99085.75;;;6.94;95.38
80585;BME280;70137;56.482;9.154;2023-12-29T04:12:56;99087.34;;;6.95;95.49
80585;BME280;70137;56.482;9.154;2023-12-29T04:15:21;99090.09;;;6.93;95.33
80585;BME280;70137;56.482;9.154;2023-12-29T04:17:46;99092.06;;;6.91;95.62
80585;BME280;70137;56.482;9.154;2023-12-29T04:20:12;99096.00;;;6.87;94.39
80585;BME280;70137;56.482;9.154;2023-12-29T04:22:37;99116.94;;;6.84;95.05
80585;BME280;70137;56.482;9.154;2023-12-29T04:25:03;99107.00;;;6.81;94.47
80585;BME280;70137;56.482;9.154;2023-12-29T04:27:28;99093.50;;;6.79;94.14
80585;BME280;70137;56.482;9.154;2023-12-29T04:29:53;99097.06;;;6.78;94.04
80585;BME280;70137;56.482;9.154;2023-12-29T04:32:19;99093.50;;;6.79;93.29
80585;BME280;70137;56.482;9.154;2023-12-29T04:34:44;99101.59;;;6.76;93.50
80585;BME280;70137;56.482;9.154;2023-12-29T04:37:09;99095.47;;;6.77;92.88
80585;BME280;70137;56.482;9.154;2023-12-29T04:39:35;99097.06;;;6.78;92.88
80585;BME280;70137;56.482;9.154;2023-12-29T04:42:00;99096.25;;;6.77;93.36
80585;BME280;70137;56.482;9.154;2023-12-29T04:44:25;99099.97;;;6.75;93.03
80585;BME280;70137;56.482;9.154;2023-12-29T04:46:51;99094.19;;;6.73;93.29
80585;BME280;70137;56.482;9.154;2023-12-29T04:49:16;99091.81;;;6.71;93.57
80585;BME280;70137;56.482;9.154;2023-12-29T04:51:41;99098.13;;;6.69;93.26
80585;BME280;70137;56.482;9.154;2023-12-29T04:54:07;99090.91;;;6.64;92.67
80585;BME280;70137;56.482;9.154;2023-12-29T04:56:32;99089.31;;;6.63;93.36
80585;BME280;70137;56.482;9.154;2023-12-29T04:58:57;99085.34;;;6.60;93.47
80585;BME280;70137;56.482;9.154;2023-12-29T05:01:24;99091.28;;;6.61;93.89
80585;BME280;70137;56.482;9.154;2023-12-29T05:03:49;99086.31;;;6.59;93.15
80585;BME280;70137;56.482;9.154;2023-12-29T05:06:15;99089.88;;;6.58;93.63
80585;BME280;70137;56.482;9.154;2023-12-29T05:08:40;99078.59;;;6.59;93.11
80585;BME280;70137;56.482;9.154;2023-12-29T05:11:05;99083.38;;;6.63;93.11
80585;BME280;70137;56.482;9.154;2023-12-29T05:13:31;99074.06;;;6.62;92.70
80585;BME280;70137;56.482;9.154;2023-12-29T05:15:56;99080.19;;;6.60;93.25
80585;BME280;70137;56.482;9.154;2023-12-29T05:18:21;99069.88;;;6.60;92.94
80585;BME280;70137;56.482;9.154;2023-12-29T05:20:47;99084.34;;;6.62;92.62
80585;BME280;70137;56.482;9.154;2023-12-29T05:23:12;99069.09;;;6.60;92.86
80585;BME280;70137;56.482;9.154;2023-12-29T05:25:39;99069.28;;;6.58;92.91
80585;BME280;70137;56.482;9.154;2023-12-29T05:28:04;99062.16;;;6.60;92.95
80585;BME280;70137;56.482;9.154;2023-12-29T05:30:29;99064.72;;;6.60;92.81
80585;BME280;70137;56.482;9.154;2023-12-29T05:32:56;99059.22;;;6.64;92.30
80585;BME280;70137;56.482;9.154;2023-12-29T05:35:22;99065.97;;;6.65;92.91
80585;BME280;70137;56.482;9.154;2023-12-29T05:37:47;99062.78;;;6.63;92.99
80585;BME280;70137;56.482;9.154;2023-12-29T05:40:12;99067.75;;;6.64;92.83
80585;BME280;70137;56.482;9.154;2023-12-29T05:42:38;99061.78;;;6.64;93.06
80585;BME280;70137;56.482;9.154;2023-12-29T05:45:03;99066.16;;;6.63;93.07
80585;BME280;70137;56.482;9.154;2023-12-29T05:47:29;99081.78;;;6.62;93.28
80585;BME280;70137;56.482;9.154;2023-12-29T05:49:54;99067.31;;;6.60;94.23
80585;BME280;70137;56.482;9.154;2023-12-29T05:52:21;99075.41;;;6.57;94.24
80585;BME280;70137;56.482;9.154;2023-12-29T05:54:46;99086.22;;;6.53;95.06
80585;BME280;70137;56.482;9.154;2023-12-29T05:57:11;99074.88;;;6.47;95.59
80585;BME280;70137;56.482;9.154;2023-12-29T05:59:37;99064.28;;;6.42;96.01
80585;BME280;70137;56.482;9.154;2023-12-29T06:02:03;99064.03;;;6.37;97.33
80585;BME280;70137;56.482;9.154;2023-12-29T06:04:28;99064.38;;;6.34;97.70
80585;BME280;70137;56.482;9.154;2023-12-29T06:06:54;99064.72;;;6.31;97.81
80585;BME280;70137;56.482;9.154;2023-12-29T06:09:19;99066.88;;;6.27;97.83
80585;BME280;70137;56.482;9.154;2023-12-29T06:11:45;99060.09;;;6.26;98.21
80585;BME280;70137;56.482;9.154;2023-12-29T06:14:10;99066.41;;;6.24;97.83
80585;BME280;70137;56.482;9.154;2023-12-29T06:16:35;99064.81;;;6.23;98.23
80585;BME280;70137;56.482;9.154;2023-12-29T06:19:01;99066.75;;;6.21;97.88
80585;BME280;70137;56.482;9.154;2023-12-29T06:21:26;99057.63;;;6.18;97.48
80585;BME280;70137;56.482;9.154;2023-12-29T06:23:52;99059.72;;;6.15;97.39
80585;BME280;70137;56.482;9.154;2023-12-29T06:26:18;99071.78;;;6.14;97.90
80585;BME280;70137;56.482;9.154;2023-12-29T06:28:45;99073.56;;;6.14;97.79
80585;BME280;70137;56.482;9.154;2023-12-29T06:31:10;99068.44;;;6.14;98.15
80585;BME280;70137;56.482;9.154;2023-12-29T06:33:36;99077.13;;;6.13;99.13
80585;BME280;70137;56.482;9.154;2023-12-29T06:36:02;99074.56;;;6.13;98.92
80585;BME280;70137;56.482;9.154;2023-12-29T06:38:27;99083.06;;;6.13;97.91
80585;BME280;70137;56.482;9.154;2023-12-29T06:40:52;99086.44;;;6.14;98.01
80585;BME280;70137;56.482;9.154;2023-12-29T06:43:18;99067.63;;;6.13;98.17
80585;BME280;70137;56.482;9.154;2023-12-29T06:45:43;99078.28;;;6.10;98.09
80585;BME280;70137;56.482;9.154;2023-12-29T06:48:09;99076.22;;;6.06;97.15
80585;BME280;70137;56.482;9.154;2023-12-29T06:50:34;99071.59;;;6.01;96.94
80585;BME280;70137;56.482;9.154;2023-12-29T06:53:02;99075.34;;;5.98;97.22
80585;BME280;70137;56.482;9.154;2023-12-29T06:55:27;99072.09;;;5.96;97.22
80585;BME280;70137;56.482;9.154;2023-12-29T06:57:53;99071.31;;;5.96;96.76
80585;BME280;70137;56.482;9.154;2023-12-29T07:00:18;99061.03;;;5.96;96.82
80585;BME280;70137;56.482;9.154;2023-12-29T07:02:44;99068.56;;;5.97;96.94
80585;BME280;70137;56.482;9.154;2023-12-29T07:05:09;99059.06;;;5.98;97.24
80585;BME280;70137;56.482;9.154;2023-12-29T07:07:35;99068.22;;;6.00;97.82
80585;BME280;70137;56.482;9.154;2023-12-29T07:10:01;99073.03;;;6.03;97.91
80585;BME280;70137;56.482;9.154;2023-12-29T07:12:26;99072.66;;;6.07;97.40
80585;BME280;70137;56.482;9.154;2023-12-29T07:14:51;99073.13;;;6.10;98.05
80585;BME280;70137;56.482;9.154;2023-12-29T07:17:17;99077.75;;;6.15;97.98
80585;BME280;70137;56.482;9.154;2023-12-29T07:19:42;99085.13;;;6.18;97.88
80585;BME280;70137;56.482;9.154;2023-12-29T07:22:07;99079.00;;;6.19;97.67
80585;BME280;70137;56.482;9.154;2023-12-29T07:24:34;99088.94;;;6.22;97.78
80585;BME280;70137;56.482;9.154;2023-12-29T07:27:00;99086.97;;;6.24;97.40
80585;BME280;70137;56.482;9.154;2023-12-29T07:29:25;99085.22;;;6.24;97.10
80585;BME280;70137;56.482;9.154;2023-12-29T07:31:51;99092.75;;;6.26;97.47
80585;BME280;70137;56.482;9.154;2023-12-29T07:34:16;99090.03;;;6.27;96.61
80585;BME280;70137;56.482;9.154;2023-12-29T07:36:42;99087.28;;;6.29;96.44
80585;BME280;70137;56.482;9.154;2023-12-29T07:39:07;99089.66;;;6.30;96.31
80585;BME280;70137;56.482;9.154;2023-12-29T07:41:34;99091.06;;;6.33;96.03
80585;BME280;70137;56.482;9.154;2023-12-29T07:43:59;99107.31;;;6.34;95.62
80585;BME280;70137;56.482;9.154;2023-12-29T07:46:25;99091.06;;;6.33;94.07
80585;BME280;70137;56.482;9.154;2023-12-29T07:48:52;99093.66;;;6.33;93.83
80585;BME280;70137;56.482;9.154;2023-12-29T07:51:17;99104.31;;;6.30;92.87
80585;BME280;70137;56.482;9.154;2023-12-29T07:53:43;99102.25;;;6.25;92.78
80585;BME280;70137;56.482;9.154;2023-12-29T07:56:10;99107.31;;;6.19;92.35
80585;BME280;70137;56.482;9.154;2023-12-29T07:58:35;99112.78;;;6.16;92.18
80585;BME280;70137;56.482;9.154;2023-12-29T08:01:01;99114.72;;;6.14;91.83
80585;BME280;70137;56.482;9.154;2023-12-29T08:03:26;99113.13;;;6.13;92.07
80585;BME280;70137;56.482;9.154;2023-12-29T08:05:52;99119.25;;;6.12;91.13
80585;BME280;70137;56.482;9.154;2023-12-29T08:08:17;99115.88;;;6.11;91.30
80585;BME280;70137;56.482;9.154;2023-12-29T08:10:42;99120.56;;;6.08;92.25
80585;BME280;70137;56.482;9.154;2023-12-29T08:13:08;99109.81;;;6.04;92.52
80585;BME280;70137;56.482;9.154;2023-12-29T08:15:36;99115.78;;;6.05;93.42
80585;BME280;70137;56.482;9.154;2023-12-29T08:18:03;99127.84;;;6.04;93.42
80585;BME280;70137;56.482;9.154;2023-12-29T08:20:28;99132.81;;;6.06;94.30
80585;BME280;70137;56.482;9.154;2023-12-29T08:22:53;99110.28;;;6.08;94.74
80585;BME280;70137;56.482;9.154;2023-12-29T08:25:19;99118.47;;;6.11;95.47
80585;BME280;70137;56.482;9.154;2023-12-29T08:27:46;99115.53;;;6.14;95.49
80585;BME280;70137;56.482;9.154;2023-12-29T08:30:12;99108.44;;;6.16;95.45
80585;BME280;70137;56.482;9.154;2023-12-29T08:32:37;99106.50;;;6.18;95.59
80585;BME280;70137;56.482;9.154;2023-12-29T08:35:03;99130.72;;;6.24;95.83
80585;BME280;70137;56.482;9.154;2023-12-29T08:37:28;99116.88;;;6.25;96.18
80585;BME280;70137;56.482;9.154;2023-12-29T08:39:54;99139.34;;;6.31;96.07
80585;BME280;70137;56.482;9.154;2023-12-29T08:42:21;99115.84;;;6.34;96.20
80585;BME280;70137;56.482;9.154;2023-12-29T08:44:46;99123.56;;;6.34;95.81
80585;BME280;70137;56.482;9.154;2023-12-29T08:47:11;99133.66;;;6.36;95.53
80585;BME280;70137;56.482;9.154;2023-12-29T08:49:37;99125.94;;;6.36;95.80
80585;BME280;70137;56.482;9.154;2023-12-29T08:52:04;99134.66;;;6.35;96.51
80585;BME280;70137;56.482;9.154;2023-12-29T08:54:29;99146.72;;;6.34;96.15
80585;BME280;70137;56.482;9.154;2023-12-29T08:56:55;99161.25;;;6.27;95.55
80585;BME280;70137;56.482;9.154;2023-12-29T08:59:20;99158.59;;;6.20;94.33
80585;BME280;70137;56.482;9.154;2023-12-29T09:01:45;99141.72;;;6.18;95.35
80585;BME280;70137;56.482;9.154;2023-12-29T09:04:12;99136.28;;;6.13;94.98
80585;BME280;70137;56.482;9.154;2023-12-29T09:06:37;99156.50;;;6.01;94.76
80585;BME280;70137;56.482;9.154;2023-12-29T09:09:02;99152.22;;;5.85;93.38
80585;BME280;70137;56.482;9.154;2023-12-29T09:11:28;99149.25;;;5.73;93.29
80585;BME280;70137;56.482;9.154;2023-12-29T09:13:53;99145.47;;;5.61;92.84
80585;BME280;70137;56.482;9.154;2023-12-29T09:16:18;99148.88;;;5.54;93.09
80585;BME280;70137;56.482;9.154;2023-12-29T09:18:44;99147.16;;;5.46;92.75
80585;BME280;70137;56.482;9.154;2023-12-29T09:21:09;99148.28;;;5.43;92.87
80585;BME280;70137;56.482;9.154;2023-12-29T09:23:34;99150.38;;;5.40;92.96
80585;BME280;70137;56.482;9.154;2023-12-29T09:26:02;99147.00;;;5.39;93.37
80585;BME280;70137;56.482;9.154;2023-12-29T09:28:28;99152.94;;;5.40;93.31
80585;BME280;70137;56.482;9.154;2023-12-29T09:30:53;99154.56;;;5.41;94.41
80585;BME280;70137;56.482;9.154;2023-12-29T09:33:18;99149.88;;;5.44;95.05
80585;BME280;70137;56.482;9.154;2023-12-29T09:35:44;99155.16;;;5.51;95.63
80585;BME280;70137;56.482;9.154;2023-12-29T09:38:09;99156.25;;;5.57;96.17
80585;BME280;70137;56.482;9.154;2023-12-29T09:40:35;99161.69;;;5.62;96.99
80585;BME280;70137;56.482;9.154;2023-12-29T09:43:03;99161.00;;;5.68;96.90
80585;BME280;70137;56.482;9.154;2023-12-29T09:45:30;99159.19;;;5.77;97.20
80585;BME280;70137;56.482;9.154;2023-12-29T09:47:56;99153.53;;;5.81;96.96
80585;BME280;70137;56.482;9.154;2023-12-29T09:50:23;99156.38;;;5.86;96.60
80585;BME280;70137;56.482;9.154;2023-12-29T09:52:49;99158.63;;;5.89;97.23
80585;BME280;70137;56.482;9.154;2023-12-29T09:55:16;99153.16;;;5.92;96.69
80585;BME280;70137;56.482;9.154;2023-12-29T09:57:42;99148.28;;;5.97;97.32
80585;BME280;70137;56.482;9.154;2023-12-29T10:00:10;99141.50;;;6.05;97.30
80585;BME280;70137;56.482;9.154;2023-12-29T10:02:37;99145.59;;;6.14;97.39
80585;BME280;70137;56.482;9.154;2023-12-29T10:05:03;99146.88;;;6.18;97.59
80585;BME280;70137;56.482;9.154;2023-12-29T10:07:32;99152.03;;;6.18;97.14
80585;BME280;70137;56.482;9.154;2023-12-29T10:10:01;99145.09;;;6.18;97.05
80585;BME280;70137;56.482;9.154;2023-12-29T10:12:28;99140.22;;;6.23;96.74
80585;BME280;70137;56.482;9.154;2023-12-29T10:17:40;99130.47;;;6.34;96.24
80585;BME280;70137;56.482;9.154;2023-12-29T10:23:08;99139.91;;;6.56;95.21
80585;BME280;70137;56.482;9.154;2023-12-29T10:25:38;99135.66;;;6.63;93.69
80585;BME280;70137;56.482;9.154;2023-12-29T10:28:04;99146.44;;;6.67;92.91
80585;BME280;70137;56.482;9.154;2023-12-29T10:30:30;99151.22;;;6.70;93.62
80585;BME280;70137;56.482;9.154;2023-12-29T10:32:56;99149.63;;;6.69;93.23
80585;BME280;70137;56.482;9.154;2023-12-29T10:35:23;99148.53;;;6.63;92.63
80585;BME280;70137;56.482;9.154;2023-12-29T10:37:49;99153.44;;;6.58;92.11
80585;BME280;70137;56.482;9.154;2023-12-29T10:40:18;99140.03;;;6.48;91.38
80585;BME280;70137;56.482;9.154;2023-12-29T10:42:56;99130.94;;;6.37;90.77
80585;BME280;70137;56.482;9.154;2023-12-29T10:45:22;99126.84;;;6.28;91.50
80585;BME280;70137;56.482;9.154;2023-12-29T10:47:50;99134.09;;;6.24;91.39
80585;BME280;70137;56.482;9.154;2023-12-29T10:50:15;99131.53;;;6.24;91.79
80585;BME280;70137;56.482;9.154;2023-12-29T10:52:41;99132.00;;;6.28;91.84
80585;BME280;70137;56.482;9.154;2023-12-29T10:55:10;99144.75;;;6.21;91.61
80585;BME280;70137;56.482;9.154;2023-12-29T10:57:37;99137.03;;;6.21;91.19
80585;BME280;70137;56.482;9.154;2023-12-29T11:00:03;99131.63;;;6.31;91.49
80585;BME280;70137;56.482;9.154;2023-12-29T11:02:33;99124.03;;;6.38;90.55
80585;BME280;70137;56.482;9.154;2023-12-29T11:05:03;99129.44;;;6.43;90.07
80585;BME280;70137;56.482;9.154;2023-12-29T11:07:33;99154.47;;;6.49;90.60
80585;BME280;70137;56.482;9.154;2023-12-29T11:10:02;99135.94;;;6.53;89.18
80585;BME280;70137;56.482;9.154;2023-12-29T11:12:30;99134.88;;;6.63;90.10
80585;BME280;70137;56.482;9.154;2023-12-29T11:14:56;99137.72;;;6.68;88.82
80585;BME280;70137;56.482;9.154;2023-12-29T11:17:23;99116.16;;;6.69;88.81
80585;BME280;70137;56.482;9.154;2023-12-29T11:19:49;99130.97;;;6.67;88.83
80585;BME280;70137;56.482;9.154;2023-12-29T11:22:16;99129.53;;;6.64;88.79
80585;BME280;70137;56.482;9.154;2023-12-29T11:24:42;99129.47;;;6.57;89.20
80585;BME280;70137;56.482;9.154;2023-12-29T11:27:08;99138.50;;;6.53;89.89
80585;BME280;70137;56.482;9.154;2023-12-29T11:29:37;99116.84;;;6.48;91.18
80585;BME280;70137;56.482;9.154;2023-12-29T11:32:06;99120.13;;;6.42;91.30
80585;BME280;70137;56.482;9.154;2023-12-29T11:34:41;99114.78;;;6.43;91.79
80585;BME280;70137;56.482;9.154;2023-12-29T11:40:30;99113.28;;;6.49;92.05
80585;BME280;70137;56.482;9.154;2023-12-29T11:43:01;99100.75;;;6.46;91.88
80585;BME280;70137;56.482;9.154;2023-12-29T11:45:31;99114.44;;;6.46;92.18
80585;BME280;70137;56.482;9.154;2023-12-29T11:47:59;99105.75;;;6.47;92.90
80585;BME280;70137;56.482;9.154;2023-12-29T11:52:57;99087.75;;;6.47;93.94
80585;BME280;70137;56.482;9.154;2023-12-29T11:55:28;99097.22;;;6.47;93.46
80585;BME280;70137;56.482;9.154;2023-12-29T11:57:54;99095.19;;;6.42;95.16
80585;BME280;70137;56.482;9.154;2023-12-29T12:00:19;99094.09;;;6.37;96.13
80585;BME280;70137;56.482;9.154;2023-12-29T12:02:45;99098.81;;;6.33;96.33
80585;BME280;70137;56.482;9.154;2023-12-29T12:05:10;99088.88;;;6.30;96.96
80585;BME280;70137;56.482;9.154;2023-12-29T12:12:47;99087.72;;;6.32;97.71
80585;BME280;70137;56.482;9.154;2023-12-29T12:17:56;99085.56;;;6.36;97.08
80585;BME280;70137;56.482;9.154;2023-12-29T12:20:22;99066.44;;;6.39;97.41
80585;BME280;70137;56.482;9.154;2023-12-29T12:22:53;99069.78;;;6.39;96.21
80585;BME280;70137;56.482;9.154;2023-12-29T12:25:22;99067.22;;;6.39;96.65
80585;BME280;70137;56.482;9.154;2023-12-29T12:27:49;99078.13;;;6.41;96.81
80585;BME280;70137;56.482;9.154;2023-12-29T12:30:18;99085.84;;;6.41;96.07
80585;BME280;70137;56.482;9.154;2023-12-29T12:32:44;99058.53;;;6.40;96.11
80585;BME280;70137;56.482;9.154;2023-12-29T12:35:14;99075.56;;;6.41;96.01
80585;BME280;70137;56.482;9.154;2023-12-29T12:37:43;99070.41;;;6.41;95.89
80585;BME280;70137;56.482;9.154;2023-12-29T12:40:08;99057.91;;;6.38;96.27
80585;BME280;70137;56.482;9.154;2023-12-29T12:42:38;99065.16;;;6.35;95.70
80585;BME280;70137;56.482;9.154;2023-12-29T12:45:13;99058.59;;;6.32;96.07
80585;BME280;70137;56.482;9.154;2023-12-29T12:47:45;99059.56;;;6.31;96.30
80585;BME280;70137;56.482;9.154;2023-12-29T12:50:12;99058.00;;;6.30;95.38
80585;BME280;70137;56.482;9.154;2023-12-29T12:52:38;99059.75;;;6.29;94.79
80585;BME280;70137;56.482;9.154;2023-12-29T12:55:05;99050.25;;;6.30;95.69
80585;BME280;70137;56.482;9.154;2023-12-29T12:57:31;99065.09;;;6.28;94.82
80585;BME280;70137;56.482;9.154;2023-12-29T12:59:59;99065.41;;;6.25;94.84
80585;BME280;70137;56.482;9.154;2023-12-29T13:02:25;99060.63;;;6.22;95.55
80585;BME280;70137;56.482;9.154;2023-12-29T13:04:51;99064.88;;;6.15;95.14
80585;BME280;70137;56.482;9.154;2023-12-29T13:07:17;99051.09;;;6.08;95.77
80585;BME280;70137;56.482;9.154;2023-12-29T13:09:44;99061.03;;;5.96;96.10
80585;BME280;70137;56.482;9.154;2023-12-29T13:12:13;99064.44;;;5.88;96.45
80585;BME280;70137;56.482;9.154;2023-12-29T13:14:39;99071.69;;;5.85;97.54
80585;BME280;70137;56.482;9.154;2023-12-29T13:17:09;99058.84;;;5.85;98.01
80585;BME280;70137;56.482;9.154;2023-12-29T13:19:38;99046.78;;;5.85;98.94
80585;BME280;70137;56.482;9.154;2023-12-29T13:22:11;99056.44;;;5.83;98.65
80585;BME280;70137;56.482;9.154;2023-12-29T13:24:45;99038.28;;;5.85;99.71